createdAt,value
2023-02-03T00:15:01.924Z,491.54855
2023-02-03T00:30:04.164Z,209.04939
2023-02-03T00:45:06.388Z,62.14982
2023-02-03T01:00:08.509Z,14.12496
2023-02-03T01:15:10.713Z,0.94166
2023-02-03T01:30:12.967Z,0
2023-02-03T01:45:15.397Z,0
2023-02-03T02:00:17.649Z,0
2023-02-03T02:15:19.909Z,0
2023-02-03T02:30:22.193Z,0
2023-02-03T02:45:24.404Z,0
2023-02-03T03:00:26.973Z,0
2023-02-03T03:15:29.511Z,0
2023-02-03T03:30:31.761Z,0
2023-02-03T03:45:34.038Z,0
2023-02-03T04:00:36.258Z,0
2023-02-03T04:15:38.529Z,0
2023-02-03T04:30:40.818Z,0
2023-02-03T04:45:43.154Z,0
2023-02-03T05:00:45.648Z,0
2023-02-03T05:15:47.960Z,0
2023-02-03T05:30:50.312Z,0
2023-02-03T05:45:52.917Z,0
2023-02-03T06:00:55.244Z,0
2023-02-03T06:15:57.501Z,0
2023-02-03T06:30:59.908Z,0
2023-02-03T06:46:02.277Z,0
2023-02-03T07:01:04.588Z,0
2023-02-03T07:16:07.248Z,0
2023-02-03T07:31:09.486Z,0
2023-02-03T07:46:11.786Z,0
2023-02-03T08:01:13.935Z,0
2023-02-03T08:16:16.166Z,0
2023-02-03T08:31:18.637Z,0
2023-02-03T08:46:21.001Z,0
2023-02-03T09:01:23.378Z,0
2023-02-03T09:16:25.673Z,0
2023-02-03T09:31:27.958Z,0
2023-02-03T09:46:30.200Z,0
2023-02-03T10:01:32.493Z,0
2023-02-03T10:16:34.805Z,0
2023-02-03T10:31:37.290Z,0
2023-02-03T10:46:39.676Z,0
2023-02-03T11:01:42.095Z,0
2023-02-03T11:16:44.649Z,0
2023-02-03T11:31:47.171Z,0
2023-02-03T11:46:49.517Z,0
2023-02-03T12:01:51.801Z,0
2023-02-03T12:16:54.110Z,0
2023-02-03T12:31:56.471Z,0
2023-02-03T12:46:58.687Z,0
2023-02-03T13:02:00.955Z,0
2023-02-03T13:17:03.219Z,0
2023-02-03T13:32:05.539Z,0
2023-02-03T13:47:07.783Z,0
2023-02-03T14:02:10.051Z,0
2023-02-03T14:17:12.533Z,0
2023-02-03T14:32:14.803Z,0
2023-02-03T14:47:17.065Z,0
2023-02-03T15:02:19.348Z,4.70832
2023-02-03T15:17:21.573Z,48.02486
2023-02-03T15:32:23.827Z,181.74113
2023-02-03T15:47:26.075Z,543.34009
2023-02-03T16:02:28.417Z,1139.41333
2023-02-03T16:17:30.935Z,1165.77991
2023-02-03T16:32:33.155Z,1519.84558
2023-02-03T16:47:35.453Z,2428.55127
2023-02-03T17:02:37.887Z,4697.96143
2023-02-03T17:17:40.164Z,3965.34668
2023-02-03T17:32:42.440Z,5043.55176
2023-02-03T18:04:58.378Z,8653.8916
2023-02-03T18:20:00.715Z,11844.24902
2023-02-03T18:35:03.076Z,7282.82861
2023-02-03T18:50:05.444Z,9309.28906
2023-02-03T19:05:07.693Z,9312.11426
2023-02-03T19:20:10.061Z,8061.58496
2023-02-03T19:35:12.421Z,9537.17188
2023-02-03T19:50:14.666Z,6940.06299
2023-02-03T20:05:16.897Z,10266.96191
2023-02-03T20:20:20.746Z,6983.37939
2023-02-03T20:35:23.240Z,6077.49902
2023-02-03T20:50:34.249Z,5068.97705
2023-02-03T21:05:39.852Z,4821.31934
2023-02-03T21:20:42.111Z,4971.04395
2023-02-03T21:35:44.417Z,3665.89771
2023-02-03T21:50:46.632Z,2691.27539
2023-02-03T22:05:48.847Z,2376.75977
2023-02-03T22:20:51.131Z,2284.47656
2023-02-03T22:35:53.397Z,934.13062
2023-02-03T22:50:55.757Z,899.28906
2023-02-03T23:05:58.172Z,677.05634
2023-02-03T23:21:00.475Z,1398.37097
2023-02-03T23:36:02.656Z,1153.53833
2023-02-03T23:51:04.880Z,569.70667
